PWSweather.com
Personal Weather Stations
Station Observations
KMIEASTT1
Tawas Bay, East Tawas, MI 48730

Tawas BayEast Tawas, MI 48730

Lat: 44.28, Lon: -83.48

Elevation: 600

Station Type: Davis VantagePro

http://www.tawasbayweather.com

High Low Average
Temperature 33.5°F0.8°F 25.2°F-3.8°F 29.9°F-1.2°F
Dew Point 25.3°F-3.7°F 19.5°F-6.9°F 21.7°F-5.7°F
Winds 13.0 mph WSW20.9 mph WSW Calm Calm 4.2 mph 6.8 mph
Wind Gusts 14.0 mph22.5 mph 2.0 mph3.2 mph 7.0 mph11.3 mph
Humidity 83% 57% 72%
Pressure 30.31 in1026.40 in 30.08 in1018.60 in -
Precipitation 0.00 in0.00 in - -
Hour Temp Dew Point Humidity Winds Wind Gusts Pressure Precip Precip Rate Daily Precip Total
12:00 AM 28.7°F-1.8°C 20.2°F-6.6°C 70% 3.0 mph NW4.8 kmh NW 7.0 mph11.3 kmh 30.08 in1018.6 mb 0.00 in0.0 mm 0.00 in0.0 mm 0.00 in0.0 mm
12:15 AM 28.5°F-1.9°C 20.0°F-6.7°C 70% 3.0 mph NNW4.8 kmh NNW 8.0 mph12.9 kmh 30.09 in1019.0 mb 0.00 in0.0 mm 0.00 in0.0 mm 0.00 in0.0 mm
12:30 AM 28.4°F-2.0°C 20.2°F-6.6°C 71% 3.0 mph NW4.8 kmh NW 9.0 mph14.5 kmh 30.10 in1019.3 mb 0.00 in0.0 mm 0.00 in0.0 mm 0.00 in0.0 mm
12:45 AM 27.9°F-2.3°C 19.7°F-6.8°C 71% 1.0 mph NW1.6 kmh NW 3.0 mph4.8 kmh 30.11 in1019.6 mb 0.00 in0.0 mm 0.00 in0.0 mm 0.00 in0.0 mm
01:00 AM 27.5°F-2.5°C 19.7°F-6.8°C 72% 3.0 mph NW4.8 kmh NW 3.0 mph4.8 kmh 30.12 in1020.0 mb 0.00 in0.0 mm 0.00 in0.0 mm 0.00 in0.0 mm
01:15 AM 27.7°F-2.4°C 19.9°F-6.7°C 72% 2.0 mph NW3.2 kmh NW 5.0 mph8.0 kmh 30.12 in1020.0 mb 0.00 in0.0 mm 0.00 in0.0 mm 0.00 in0.0 mm
01:30 AM 28.1°F-2.2°C 20.3°F-6.5°C 72% 2.0 mph NW3.2 kmh NW 4.0 mph6.4 kmh 30.13 in1020.3 mb 0.00 in0.0 mm 0.00 in0.0 mm 0.00 in0.0 mm
01:45 AM 28.2°F-2.1°C 20.4°F-6.4°C 72% 4.0 mph NNW6.4 kmh NNW 5.0 mph8.0 kmh 30.14 in1020.7 mb 0.00 in0.0 mm 0.00 in0.0 mm 0.00 in0.0 mm
02:00 AM 28.4°F-2.0°C 20.5°F-6.4°C 72% 2.0 mph NW3.2 kmh NW 3.0 mph4.8 kmh 30.15 in1021.0 mb 0.00 in0.0 mm 0.00 in0.0 mm 0.00 in0.0 mm
02:15 AM 28.4°F-2.0°C 20.5°F-6.4°C 72% 3.0 mph NW4.8 kmh NW 3.0 mph4.8 kmh 30.16 in1021.3 mb 0.00 in0.0 mm 0.00 in0.0 mm 0.00 in0.0 mm
02:30 AM 28.4°F-2.0°C 20.5°F-6.4°C 72% 2.0 mph WNW3.2 kmh WNW 4.0 mph6.4 kmh 30.17 in1021.7 mb 0.00 in0.0 mm 0.00 in0.0 mm 0.00 in0.0 mm
02:45 AM 28.3°F-2.1°C 20.8°F-6.2°C 73% Calm Calm 2.0 mph3.2 kmh 30.17 in1021.7 mb 0.00 in0.0 mm 0.00 in0.0 mm 0.00 in0.0 mm
03:00 AM 28.1°F-2.2°C 20.9°F-6.2°C 74% 3.0 mph NW4.8 kmh NW 6.0 mph9.7 kmh 30.18 in1022.0 mb 0.00 in0.0 mm 0.00 in0.0 mm 0.00 in0.0 mm
03:15 AM 27.8°F-2.3°C 20.6°F-6.3°C 74% 3.0 mph NNW4.8 kmh NNW 5.0 mph8.0 kmh 30.18 in1022.0 mb 0.00 in0.0 mm 0.00 in0.0 mm 0.00 in0.0 mm
03:30 AM 27.5°F-2.5°C 20.6°F-6.3°C 75% 2.0 mph WNW3.2 kmh WNW 6.0 mph9.7 kmh 30.18 in1022.0 mb 0.00 in0.0 mm 0.00 in0.0 mm 0.00 in0.0 mm
03:45 AM 27.3°F-2.6°C 20.8°F-6.2°C 76% 2.0 mph NW3.2 kmh NW 6.0 mph9.7 kmh 30.19 in1022.4 mb 0.00 in0.0 mm 0.00 in0.0 mm 0.00 in0.0 mm
04:00 AM 27.8°F-2.3°C 21.5°F-5.8°C 77% 3.0 mph NW4.8 kmh NW 5.0 mph8.0 kmh 30.19 in1022.4 mb 0.00 in0.0 mm 0.00 in0.0 mm 0.00 in0.0 mm
04:15 AM 27.8°F-2.3°C 21.5°F-5.8°C 77% 2.0 mph NW3.2 kmh NW 4.0 mph6.4 kmh 30.20 in1022.7 mb 0.00 in0.0 mm 0.00 in0.0 mm 0.00 in0.0 mm
04:30 AM 27.8°F-2.3°C 21.5°F-5.8°C 77% 2.0 mph NW3.2 kmh NW 5.0 mph8.0 kmh 30.20 in1022.7 mb 0.00 in0.0 mm 0.00 in0.0 mm 0.00 in0.0 mm
04:45 AM 27.4°F-2.6°C 21.5°F-5.8°C 78% 2.0 mph NW3.2 kmh NW 6.0 mph9.7 kmh 30.21 in1023.0 mb 0.00 in0.0 mm 0.00 in0.0 mm 0.00 in0.0 mm
05:00 AM 27.2°F-2.7°C 21.3°F-5.9°C 78% 3.0 mph NW4.8 kmh NW 6.0 mph9.7 kmh 30.23 in1023.7 mb 0.00 in0.0 mm 0.00 in0.0 mm 0.00 in0.0 mm
05:15 AM 27.2°F-2.7°C 21.3°F-5.9°C 78% 4.0 mph NNW6.4 kmh NNW 9.0 mph14.5 kmh 30.24 in1024.0 mb 0.00 in0.0 mm 0.00 in0.0 mm 0.00 in0.0 mm
05:30 AM 27.0°F-2.8°C 21.1°F-6.1°C 78% 3.0 mph WNW4.8 kmh WNW 5.0 mph8.0 kmh 30.24 in1024.0 mb 0.00 in0.0 mm 0.00 in0.0 mm 0.00 in0.0 mm
05:45 AM 27.0°F-2.8°C 21.1°F-6.1°C 78% 2.0 mph WNW3.2 kmh WNW 5.0 mph8.0 kmh 30.24 in1024.0 mb 0.00 in0.0 mm 0.00 in0.0 mm 0.00 in0.0 mm
06:00 AM 26.6°F-3.0°C 20.7°F-6.3°C 78% 2.0 mph NW3.2 kmh NW 5.0 mph8.0 kmh 30.24 in1024.0 mb 0.00 in0.0 mm 0.00 in0.0 mm 0.00 in0.0 mm
06:15 AM 26.3°F-3.2°C 20.7°F-6.3°C 79% 2.0 mph NW3.2 kmh NW 3.0 mph4.8 kmh 30.24 in1024.0 mb 0.00 in0.0 mm 0.00 in0.0 mm 0.00 in0.0 mm
06:30 AM 26.0°F-3.3°C 20.7°F-6.3°C 80% 2.0 mph NW3.2 kmh NW 3.0 mph4.8 kmh 30.25 in1024.4 mb 0.00 in0.0 mm 0.00 in0.0 mm 0.00 in0.0 mm
06:45 AM 25.6°F-3.6°C 20.6°F-6.3°C 81% Calm Calm 2.0 mph3.2 kmh 30.25 in1024.4 mb 0.00 in0.0 mm 0.00 in0.0 mm 0.00 in0.0 mm
07:00 AM 25.2°F-3.8°C 20.5°F-6.4°C 82% 1.0 mph NW1.6 kmh NW 3.0 mph4.8 kmh 30.26 in1024.7 mb 0.00 in0.0 mm 0.00 in0.0 mm 0.00 in0.0 mm
07:15 AM 25.4°F-3.7°C 21.0°F-6.1°C 83% 1.0 mph NW1.6 kmh NW 4.0 mph6.4 kmh 30.27 in1025.1 mb 0.00 in0.0 mm 0.00 in0.0 mm 0.00 in0.0 mm
07:30 AM 25.3°F-3.7°C 20.9°F-6.2°C 83% 1.0 mph NW1.6 kmh NW 2.0 mph3.2 kmh 30.27 in1025.1 mb 0.00 in0.0 mm 0.00 in0.0 mm 0.00 in0.0 mm
07:45 AM 25.2°F-3.8°C 20.8°F-6.2°C 83% 3.0 mph WNW4.8 kmh WNW 5.0 mph8.0 kmh 30.28 in1025.4 mb 0.00 in0.0 mm 0.00 in0.0 mm 0.00 in0.0 mm
08:00 AM 25.3°F-3.7°C 20.9°F-6.2°C 83% 1.0 mph NW1.6 kmh NW 3.0 mph4.8 kmh 30.28 in1025.4 mb 0.00 in0.0 mm 0.00 in0.0 mm 0.00 in0.0 mm
08:15 AM 26.4°F-3.1°C 22.0°F-5.6°C 83% 2.0 mph NW3.2 kmh NW 3.0 mph4.8 kmh 30.29 in1025.7 mb 0.00 in0.0 mm 0.00 in0.0 mm 0.00 in0.0 mm
08:30 AM 27.0°F-2.8°C 22.3°F-5.4°C 82% 3.0 mph NW4.8 kmh NW 4.0 mph6.4 kmh 30.30 in1026.1 mb 0.00 in0.0 mm 0.00 in0.0 mm 0.00 in0.0 mm
08:45 AM 26.9°F-2.8°C 22.2°F-5.4°C 82% 2.0 mph NW3.2 kmh NW 4.0 mph6.4 kmh 30.30 in1026.1 mb 0.00 in0.0 mm 0.00 in0.0 mm 0.00 in0.0 mm
09:00 AM 27.0°F-2.8°C 22.3°F-5.4°C 82% 3.0 mph WNW4.8 kmh WNW 5.0 mph8.0 kmh 30.30 in1026.1 mb 0.00 in0.0 mm 0.00 in0.0 mm 0.00 in0.0 mm
09:15 AM 27.3°F-2.6°C 22.5°F-5.3°C 82% 2.0 mph WSW3.2 kmh WSW 4.0 mph6.4 kmh 30.30 in1026.1 mb 0.00 in0.0 mm 0.00 in0.0 mm 0.00 in0.0 mm
09:30 AM 27.7°F-2.4°C 22.6°F-5.2°C 81% 2.0 mph NW3.2 kmh NW 4.0 mph6.4 kmh 30.30 in1026.1 mb 0.00 in0.0 mm 0.00 in0.0 mm 0.00 in0.0 mm
09:45 AM 28.0°F-2.2°C 22.3°F-5.4°C 79% 2.0 mph WNW3.2 kmh WNW 5.0 mph8.0 kmh 30.31 in1026.4 mb 0.00 in0.0 mm 0.00 in0.0 mm 0.00 in0.0 mm
10:00 AM 28.9°F-1.7°C 22.9°F-5.1°C 78% 3.0 mph WNW4.8 kmh WNW 4.0 mph6.4 kmh 30.31 in1026.4 mb 0.00 in0.0 mm 0.00 in0.0 mm 0.00 in0.0 mm
10:15 AM 29.4°F-1.4°C 22.8°F-5.1°C 76% 3.0 mph WNW4.8 kmh WNW 6.0 mph9.7 kmh 30.31 in1026.4 mb 0.00 in0.0 mm 0.00 in0.0 mm 0.00 in0.0 mm
12:00 PM 31.9°F-0.1°C 20.4°F-6.4°C 62% 4.0 mph WSW6.4 kmh WSW 7.0 mph11.3 kmh 30.29 in1025.7 mb 0.00 in0.0 mm 0.00 in0.0 mm 0.00 in0.0 mm
12:15 PM 31.6°F-0.2°C 20.5°F-6.4°C 63% 5.0 mph NW8.0 kmh NW 11.0 mph17.7 kmh 30.29 in1025.7 mb 0.00 in0.0 mm 0.00 in0.0 mm 0.00 in0.0 mm
12:30 PM 31.6°F-0.2°C 19.7°F-6.8°C 61% 3.0 mph WNW4.8 kmh WNW 6.0 mph9.7 kmh 30.28 in1025.4 mb 0.00 in0.0 mm 0.00 in0.0 mm 0.00 in0.0 mm
12:45 PM 32.1°F0.1°C 20.6°F-6.3°C 62% 3.0 mph WNW4.8 kmh WNW 4.0 mph6.4 kmh 30.28 in1025.4 mb 0.00 in0.0 mm 0.00 in0.0 mm 0.00 in0.0 mm
01:00 PM 32.1°F0.1°C 19.8°F-6.8°C 60% 2.0 mph W3.2 kmh W 9.0 mph14.5 kmh 30.28 in1025.4 mb 0.00 in0.0 mm 0.00 in0.0 mm 0.00 in0.0 mm
01:16 PM 31.9°F-0.1°C 20.0°F-6.7°C 61% Calm Calm 6.0 mph9.7 kmh 30.28 in1025.4 mb 0.00 in0.0 mm 0.00 in0.0 mm 0.00 in0.0 mm
01:30 PM 32.2°F0.1°C 19.5°F-6.9°C 59% 4.0 mph WSW6.4 kmh WSW 7.0 mph11.3 kmh 30.28 in1025.4 mb 0.00 in0.0 mm 0.00 in0.0 mm 0.00 in0.0 mm
01:45 PM 32.5°F0.3°C 20.2°F-6.6°C 60% 3.0 mph SW4.8 kmh SW 6.0 mph9.7 kmh 30.28 in1025.4 mb 0.00 in0.0 mm 0.00 in0.0 mm 0.00 in0.0 mm
02:00 PM 32.9°F0.5°C 20.9°F-6.2°C 61% 4.0 mph SW6.4 kmh SW 6.0 mph9.7 kmh 30.28 in1025.4 mb 0.00 in0.0 mm 0.00 in0.0 mm 0.00 in0.0 mm
02:15 PM 32.6°F0.3°C 21.0°F-6.1°C 62% 1.0 mph S1.6 kmh S 9.0 mph14.5 kmh 30.28 in1025.4 mb 0.00 in0.0 mm 0.00 in0.0 mm 0.00 in0.0 mm
02:30 PM 33.5°F0.8°C 19.9°F-6.7°C 57% 3.0 mph W4.8 kmh W 6.0 mph9.7 kmh 30.28 in1025.4 mb 0.00 in0.0 mm 0.00 in0.0 mm 0.00 in0.0 mm
02:45 PM 33.3°F0.7°C 20.9°F-6.2°C 60% 7.0 mph W11.3 kmh W 9.0 mph14.5 kmh 30.28 in1025.4 mb 0.00 in0.0 mm 0.00 in0.0 mm 0.00 in0.0 mm
03:00 PM 33.4°F0.8°C 22.9°F-5.1°C 65% 10.0 mph WSW16.1 kmh WSW 12.0 mph19.3 kmh 30.27 in1025.1 mb 0.00 in0.0 mm 0.00 in0.0 mm 0.00 in0.0 mm
03:15 PM 33.4°F0.8°C 21.0°F-6.1°C 60% 4.0 mph NW6.4 kmh NW 8.0 mph12.9 kmh 30.27 in1025.1 mb 0.00 in0.0 mm 0.00 in0.0 mm 0.00 in0.0 mm
03:30 PM 33.3°F0.7°C 20.9°F-6.2°C 60% 6.0 mph SW9.7 kmh SW 7.0 mph11.3 kmh 30.28 in1025.4 mb 0.00 in0.0 mm 0.00 in0.0 mm 0.00 in0.0 mm
03:45 PM 33.1°F0.6°C 21.1°F-6.1°C 61% 9.0 mph WSW14.5 kmh WSW 10.0 mph16.1 kmh 30.28 in1025.4 mb 0.00 in0.0 mm 0.00 in0.0 mm 0.00 in0.0 mm
04:00 PM 33.3°F0.7°C 21.7°F-5.7°C 62% 6.0 mph WSW9.7 kmh WSW 8.0 mph12.9 kmh 30.29 in1025.7 mb 0.00 in0.0 mm 0.00 in0.0 mm 0.00 in0.0 mm
04:15 PM 32.9°F0.5°C 20.2°F-6.6°C 59% 4.0 mph WSW6.4 kmh WSW 9.0 mph14.5 kmh 30.29 in1025.7 mb 0.00 in0.0 mm 0.00 in0.0 mm 0.00 in0.0 mm
04:30 PM 32.8°F0.4°C 21.2°F-6.0°C 62% 3.0 mph WNW4.8 kmh WNW 9.0 mph14.5 kmh 30.30 in1026.1 mb 0.00 in0.0 mm 0.00 in0.0 mm 0.00 in0.0 mm
04:45 PM 32.9°F0.5°C 23.9°F-4.5°C 69% 10.0 mph SW16.1 kmh SW 10.0 mph16.1 kmh 30.29 in1025.7 mb 0.00 in0.0 mm 0.00 in0.0 mm 0.00 in0.0 mm
05:00 PM 32.3°F0.2°C 22.2°F-5.4°C 66% 7.0 mph W11.3 kmh W 11.0 mph17.7 kmh 30.28 in1025.4 mb 0.00 in0.0 mm 0.00 in0.0 mm 0.00 in0.0 mm
05:15 PM 32.0°F0.0°C 21.9°F-5.6°C 66% 6.0 mph W9.7 kmh W 10.0 mph16.1 kmh 30.28 in1025.4 mb 0.00 in0.0 mm 0.00 in0.0 mm 0.00 in0.0 mm
05:30 PM 31.9°F-0.1°C 22.9°F-5.1°C 69% 3.0 mph WNW4.8 kmh WNW 12.0 mph19.3 kmh 30.27 in1025.1 mb 0.00 in0.0 mm 0.00 in0.0 mm 0.00 in0.0 mm
05:45 PM 31.6°F-0.2°C 22.3°F-5.4°C 68% 7.0 mph WSW11.3 kmh WSW 9.0 mph14.5 kmh 30.28 in1025.4 mb 0.00 in0.0 mm 0.00 in0.0 mm 0.00 in0.0 mm
06:00 PM 31.5°F-0.3°C 22.2°F-5.4°C 68% 6.0 mph WSW9.7 kmh WSW 8.0 mph12.9 kmh 30.28 in1025.4 mb 0.00 in0.0 mm 0.00 in0.0 mm 0.00 in0.0 mm
06:15 PM 31.4°F-0.3°C 22.1°F-5.5°C 68% 6.0 mph W9.7 kmh W 8.0 mph12.9 kmh 30.28 in1025.4 mb 0.00 in0.0 mm 0.00 in0.0 mm 0.00 in0.0 mm
06:30 PM 31.3°F-0.4°C 22.0°F-5.6°C 68% 2.0 mph WSW3.2 kmh WSW 5.0 mph8.0 kmh 30.27 in1025.1 mb 0.00 in0.0 mm 0.00 in0.0 mm 0.00 in0.0 mm
06:45 PM 31.3°F-0.4°C 21.6°F-5.8°C 67% 1.0 mph WSW1.6 kmh WSW 6.0 mph9.7 kmh 30.27 in1025.1 mb 0.00 in0.0 mm 0.00 in0.0 mm 0.00 in0.0 mm
07:00 PM 30.9°F-0.6°C 21.3°F-5.9°C 67% 1.0 mph WSW1.6 kmh WSW 2.0 mph3.2 kmh 30.27 in1025.1 mb 0.00 in0.0 mm 0.00 in0.0 mm 0.00 in0.0 mm
07:15 PM 31.0°F-0.6°C 21.3°F-5.9°C 67% 3.0 mph W4.8 kmh W 5.0 mph8.0 kmh 30.27 in1025.1 mb 0.00 in0.0 mm 0.00 in0.0 mm 0.00 in0.0 mm
07:30 PM 31.7°F-0.2°C 22.0°F-5.6°C 67% 3.0 mph SW4.8 kmh SW 7.0 mph11.3 kmh 30.26 in1024.7 mb 0.00 in0.0 mm 0.00 in0.0 mm 0.00 in0.0 mm
07:45 PM 31.6°F-0.2°C 21.9°F-5.6°C 67% 5.0 mph SW8.0 kmh SW 7.0 mph11.3 kmh 30.26 in1024.7 mb 0.00 in0.0 mm 0.00 in0.0 mm 0.00 in0.0 mm
08:00 PM 31.9°F-0.1°C 22.9°F-5.1°C 69% 5.0 mph SW8.0 kmh SW 8.0 mph12.9 kmh 30.26 in1024.7 mb 0.00 in0.0 mm 0.00 in0.0 mm 0.00 in0.0 mm
08:15 PM 31.9°F-0.1°C 23.2°F-4.9°C 70% 6.0 mph SW9.7 kmh SW 7.0 mph11.3 kmh 30.26 in1024.7 mb 0.00 in0.0 mm 0.00 in0.0 mm 0.00 in0.0 mm
08:30 PM 32.2°F0.1°C 23.9°F-4.5°C 71% 6.0 mph SW9.7 kmh SW 8.0 mph12.9 kmh 30.25 in1024.4 mb 0.00 in0.0 mm 0.00 in0.0 mm 0.00 in0.0 mm
08:45 PM 32.6°F0.3°C 25.3°F-3.7°C 74% 10.0 mph SW16.1 kmh SW 12.0 mph19.3 kmh 30.25 in1024.4 mb 0.00 in0.0 mm 0.00 in0.0 mm 0.00 in0.0 mm
09:00 PM 32.3°F0.2°C 24.3°F-4.3°C 72% 10.0 mph SW16.1 kmh SW 14.0 mph22.5 kmh 30.24 in1024.0 mb 0.00 in0.0 mm 0.00 in0.0 mm 0.00 in0.0 mm
09:15 PM 31.9°F-0.1°C 23.9°F-4.5°C 72% 10.0 mph WSW16.1 kmh WSW 14.0 mph22.5 kmh 30.24 in1024.0 mb 0.00 in0.0 mm 0.00 in0.0 mm 0.00 in0.0 mm
09:30 PM 31.7°F-0.2°C 24.1°F-4.4°C 73% 11.0 mph WSW17.7 kmh WSW 13.0 mph20.9 kmh 30.24 in1024.0 mb 0.00 in0.0 mm 0.00 in0.0 mm 0.00 in0.0 mm
09:45 PM 31.7°F-0.2°C 24.4°F-4.2°C 74% 12.0 mph WSW19.3 kmh WSW 12.0 mph19.3 kmh 30.23 in1023.7 mb 0.00 in0.0 mm 0.00 in0.0 mm 0.00 in0.0 mm
10:00 PM 31.7°F-0.2°C 24.4°F-4.2°C 74% 7.0 mph WSW11.3 kmh WSW 11.0 mph17.7 kmh 30.23 in1023.7 mb 0.00 in0.0 mm 0.00 in0.0 mm 0.00 in0.0 mm
10:15 PM 31.7°F-0.2°C 23.7°F-4.6°C 72% 7.0 mph WSW11.3 kmh WSW 13.0 mph20.9 kmh 30.23 in1023.7 mb 0.00 in0.0 mm 0.00 in0.0 mm 0.00 in0.0 mm
10:30 PM 31.7°F-0.2°C 24.1°F-4.4°C 73% 7.0 mph SW11.3 kmh SW 12.0 mph19.3 kmh 30.22 in1023.4 mb 0.00 in0.0 mm 0.00 in0.0 mm 0.00 in0.0 mm
10:45 PM 31.7°F-0.2°C 24.1°F-4.4°C 73% 8.0 mph SW12.9 kmh SW 12.0 mph19.3 kmh 30.22 in1023.4 mb 0.00 in0.0 mm 0.00 in0.0 mm 0.00 in0.0 mm
11:00 PM 31.8°F-0.1°C 24.5°F-4.2°C 74% 10.0 mph SW16.1 kmh SW 13.0 mph20.9 kmh 30.21 in1023.0 mb 0.00 in0.0 mm 0.00 in0.0 mm 0.00 in0.0 mm
11:15 PM 31.9°F-0.1°C 24.6°F-4.1°C 74% 13.0 mph WSW20.9 kmh WSW 13.0 mph20.9 kmh 30.22 in1023.4 mb 0.00 in0.0 mm 0.00 in0.0 mm 0.00 in0.0 mm
11:30 PM 31.9°F-0.1°C 25.2°F-3.8°C 76% 7.0 mph WSW11.3 kmh WSW 12.0 mph19.3 kmh 30.22 in1023.4 mb 0.00 in0.0 mm 0.00 in0.0 mm 0.00 in0.0 mm
11:45 PM 32.0°F0.0°C 25.3°F-3.7°C 76% 11.0 mph SW17.7 kmh SW 12.0 mph19.3 kmh 30.22 in1023.4 mb 0.00 in0.0 mm 0.00 in0.0 mm 0.00 in0.0 mm